createdAt,value
2018-07-30T00:00:04.232Z,23.69
2018-07-30T00:01:04.162Z,23.66
2018-07-30T00:02:04.095Z,23.66
2018-07-30T00:03:04.042Z,23.71
2018-07-30T00:04:03.957Z,23.61
2018-07-30T00:05:03.924Z,23.66
2018-07-30T00:06:03.827Z,23.62
2018-07-30T00:07:03.735Z,23.62
2018-07-30T00:08:03.668Z,23.56
2018-07-30T00:09:03.595Z,23.55
2018-07-30T00:10:03.525Z,23.58
2018-07-30T00:11:03.453Z,23.56
2018-07-30T00:12:03.380Z,23.55
2018-07-30T00:13:03.311Z,23.48
2018-07-30T00:14:03.247Z,23.47
2018-07-30T00:15:03.170Z,23.36
2018-07-30T00:16:03.099Z,23.40
2018-07-30T00:17:03.026Z,23.25
2018-07-30T00:18:02.956Z,23.21
2018-07-30T00:19:02.886Z,23.17
2018-07-30T00:20:02.844Z,23.10
2018-07-30T00:21:02.743Z,23.12
2018-07-30T00:22:02.675Z,22.99
2018-07-30T00:23:02.610Z,22.94
2018-07-30T00:24:02.529Z,22.90
2018-07-30T00:25:02.455Z,22.80
2018-07-30T00:26:02.389Z,22.87
2018-07-30T00:27:02.329Z,22.84
2018-07-30T00:28:02.245Z,22.81
2018-07-30T00:29:02.173Z,22.75
2018-07-30T00:30:02.101Z,22.73
2018-07-30T00:31:02.041Z,22.83
2018-07-30T00:32:01.958Z,22.76
2018-07-30T00:33:01.889Z,22.75
2018-07-30T00:34:01.817Z,22.68
2018-07-30T00:35:01.751Z,22.54
2018-07-30T00:36:01.673Z,22.62
2018-07-30T00:37:01.604Z,22.69
2018-07-30T00:38:01.537Z,22.59
2018-07-30T00:39:01.459Z,22.65
2018-07-30T00:40:01.394Z,22.65
2018-07-30T00:41:01.314Z,22.63
2018-07-30T00:42:01.247Z,22.65
2018-07-30T00:43:01.191Z,22.63
2018-07-30T00:44:01.112Z,22.63
2018-07-30T00:45:01.030Z,22.65
2018-07-30T00:46:00.957Z,22.65
2018-07-30T00:47:00.888Z,22.63
2018-07-30T00:48:00.815Z,22.65
2018-07-30T00:49:00.742Z,22.62
2018-07-30T00:50:00.672Z,22.60
2018-07-30T00:51:00.601Z,22.57
2018-07-30T00:52:00.529Z,22.63
2018-07-30T00:53:00.464Z,22.63
2018-07-30T00:54:00.385Z,22.62
2018-07-30T00:55:00.369Z,22.60
2018-07-30T00:56:00.265Z,22.65
2018-07-30T00:57:00.170Z,22.60
2018-07-30T00:58:00.136Z,22.65
2018-07-30T00:59:00.028Z,22.65
2018-07-30T00:59:59.978Z,22.63
2018-07-30T01:00:59.895Z,22.65
2018-07-30T01:01:59.812Z,22.65
2018-07-30T01:02:59.744Z,22.60
2018-07-30T01:03:59.669Z,22.70
2018-07-30T01:04:59.626Z,22.69
2018-07-30T01:05:59.530Z,22.63
2018-07-30T01:06:59.453Z,22.57
2018-07-30T01:07:59.388Z,22.48
2018-07-30T01:08:59.311Z,22.48
2018-07-30T01:09:59.242Z,22.48
2018-07-30T01:10:59.169Z,22.45
2018-07-30T01:11:59.098Z,22.47
2018-07-30T01:12:59.029Z,22.43
2018-07-30T01:13:58.955Z,22.36
2018-07-30T01:14:58.886Z,22.30
2018-07-30T01:15:58.809Z,22.23
2018-07-30T01:16:58.737Z,22.22
2018-07-30T01:17:58.678Z,22.15
2018-07-30T01:18:58.595Z,22.15
2018-07-30T01:19:58.524Z,22.15
2018-07-30T01:20:58.448Z,22.20
2018-07-30T01:21:58.404Z,22.17
2018-07-30T01:22:58.305Z,22.18
2018-07-30T01:23:58.237Z,22.15
2018-07-30T01:24:58.165Z,22.14
2018-07-30T01:25:58.093Z,22.15
2018-07-30T01:26:58.024Z,22.11
2018-07-30T01:27:57.949Z,22.07
2018-07-30T01:28:57.875Z,22.07
2018-07-30T01:29:57.833Z,22.04
2018-07-30T01:30:57.743Z,21.98
2018-07-30T01:31:57.658Z,22.13
2018-07-30T01:32:57.588Z,22.04
2018-07-30T01:33:57.517Z,22.04
2018-07-30T01:34:57.446Z,22.11
2018-07-30T01:35:57.371Z,22.10
2018-07-30T01:36:57.300Z,22.02
2018-07-30T01:37:57.227Z,22.14
2018-07-30T01:38:57.175Z,22.13
2018-07-30T01:39:57.084Z,22.17
2018-07-30T01:40:57.016Z,22.15
2018-07-30T01:41:56.939Z,22.11
2018-07-30T01:42:56.889Z,22.00
2018-07-30T01:43:56.796Z,22.06
2018-07-30T01:44:56.727Z,22.14
2018-07-30T01:45:56.652Z,22.15
2018-07-30T01:46:56.580Z,22.18
2018-07-30T01:47:56.543Z,22.08
2018-07-30T01:48:56.434Z,22.10
2018-07-30T01:49:56.362Z,22.08
2018-07-30T01:50:56.293Z,22.04
2018-07-30T01:51:56.259Z,22.04
2018-07-30T01:52:56.149Z,21.96
2018-07-30T01:53:56.075Z,22.02
2018-07-30T01:54:56.003Z,21.98
2018-07-30T01:55:55.956Z,21.99
2018-07-30T01:56:55.857Z,21.91
2018-07-30T01:57:55.788Z,21.98
2018-07-30T01:58:55.725Z,22.00
2018-07-30T01:59:55.643Z,21.99
2018-07-30T02:00:55.570Z,22.04
2018-07-30T02:01:55.501Z,22.02
2018-07-30T02:02:55.427Z,22.06
2018-07-30T02:03:55.355Z,22.06
2018-07-30T02:04:55.281Z,22.06
2018-07-30T02:05:55.210Z,21.91
2018-07-30T02:06:55.142Z,22.06
2018-07-30T02:07:55.069Z,22.07
2018-07-30T02:08:55.020Z,22.04
2018-07-30T02:09:54.928Z,21.96
2018-07-30T02:10:54.852Z,21.98
2018-07-30T02:11:54.779Z,21.99
2018-07-30T02:12:54.705Z,22.04
2018-07-30T02:13:54.634Z,21.99
2018-07-30T02:14:54.561Z,21.93
2018-07-30T02:15:54.488Z,21.96
2018-07-30T02:16:54.415Z,21.98
2018-07-30T02:17:54.347Z,21.93
2018-07-30T02:18:54.273Z,21.93
2018-07-30T02:19:54.201Z,21.92
2018-07-30T02:20:54.128Z,21.89
2018-07-30T02:21:54.057Z,21.92
2018-07-30T02:22:53.988Z,21.88
2018-07-30T02:23:53.912Z,21.88
2018-07-30T02:24:53.841Z,21.89
2018-07-30T02:25:53.769Z,21.79
2018-07-30T02:26:53.695Z,21.85
2018-07-30T02:27:53.644Z,21.88
2018-07-30T02:28:53.550Z,21.73
2018-07-30T02:29:53.480Z,21.77
2018-07-30T02:30:53.408Z,21.75
2018-07-30T02:31:53.334Z,21.70
2018-07-30T02:32:53.262Z,21.52
2018-07-30T02:33:53.191Z,21.51
2018-07-30T02:34:53.136Z,21.52
2018-07-30T02:35:53.053Z,21.48
2018-07-30T02:36:52.985Z,21.46
2018-07-30T02:37:52.901Z,21.50
2018-07-30T02:38:52.830Z,21.48
2018-07-30T02:39:52.759Z,21.52
2018-07-30T02:40:52.699Z,21.48
2018-07-30T02:41:52.612Z,21.50
2018-07-30T02:42:52.542Z,21.45
2018-07-30T02:43:52.472Z,21.46
2018-07-30T02:44:52.399Z,21.43
2018-07-30T02:45:52.322Z,21.37
2018-07-30T02:46:52.251Z,21.43
2018-07-30T02:47:52.175Z,21.46
2018-07-30T02:48:52.106Z,21.43
2018-07-30T02:49:52.044Z,21.37
2018-07-30T02:50:51.965Z,21.32
2018-07-30T02:51:51.890Z,21.24
2018-07-30T02:52:51.816Z,21.18
2018-07-30T02:53:51.744Z,21.17
2018-07-30T02:54:51.674Z,21.22
2018-07-30T02:55:51.598Z,21.11
2018-07-30T02:56:51.528Z,21.14
2018-07-30T02:57:51.507Z,21.21
2018-07-30T02:58:51.384Z,21.15
2018-07-30T02:59:51.310Z,21.14
2018-07-30T03:00:51.239Z,21.15
2018-07-30T03:01:51.166Z,21.21
2018-07-30T03:02:51.089Z,21.20
2018-07-30T03:03:51.017Z,21.20
2018-07-30T03:04:50.945Z,21.25
2018-07-30T03:05:50.871Z,21.22
2018-07-30T03:06:50.802Z,21.25
2018-07-30T03:07:50.734Z,21.24
2018-07-30T03:08:50.655Z,21.25
2018-07-30T03:09:50.582Z,21.30
2018-07-30T03:10:50.510Z,21.27
2018-07-30T03:11:50.437Z,21.27
2018-07-30T03:12:50.366Z,21.27
2018-07-30T03:13:50.292Z,21.30
2018-07-30T03:14:50.217Z,21.25
2018-07-30T03:15:50.147Z,21.18
2018-07-30T03:16:50.075Z,21.18
2018-07-30T03:17:50.002Z,21.14
2018-07-30T03:18:49.928Z,21.14
2018-07-30T03:19:49.876Z,21.11
2018-07-30T03:20:49.785Z,21.03
2018-07-30T03:21:49.713Z,20.92
2018-07-30T03:22:49.639Z,21.03
2018-07-30T03:23:49.567Z,20.95
2018-07-30T03:24:49.493Z,20.96
2018-07-30T03:25:49.421Z,20.96
2018-07-30T03:26:49.359Z,21.02
2018-07-30T03:27:49.277Z,20.95
2018-07-30T03:28:49.281Z,21.02
2018-07-30T03:29:49.131Z,20.99
2018-07-30T03:30:49.062Z,20.82
2018-07-30T03:31:48.983Z,20.99
2018-07-30T03:32:48.913Z,20.81
2018-07-30T03:33:48.841Z,20.84
2018-07-30T03:34:48.770Z,20.80
2018-07-30T03:35:48.692Z,20.77
2018-07-30T03:36:48.620Z,20.80
2018-07-30T03:37:48.556Z,20.77
2018-07-30T03:38:48.477Z,20.80
2018-07-30T03:39:48.403Z,20.70
2018-07-30T03:40:48.341Z,20.62
2018-07-30T03:41:48.267Z,20.58
2018-07-30T03:42:48.186Z,20.56
2018-07-30T03:43:48.113Z,20.55
2018-07-30T03:44:48.036Z,20.48
2018-07-30T03:45:47.966Z,20.48
2018-07-30T03:46:47.893Z,20.51
2018-07-30T03:47:47.820Z,20.48
2018-07-30T03:48:47.760Z,20.47
2018-07-30T03:49:47.700Z,20.43
2018-07-30T03:50:47.619Z,20.37
2018-07-30T03:51:47.526Z,20.34
2018-07-30T03:52:47.453Z,20.34
2018-07-30T03:53:47.388Z,20.32
2018-07-30T03:54:47.379Z,20.37
2018-07-30T03:55:47.237Z,20.36
2018-07-30T03:56:47.164Z,20.39
2018-07-30T03:57:47.089Z,20.41
2018-07-30T03:58:47.017Z,20.43
2018-07-30T03:59:46.945Z,20.47
2018-07-30T04:00:46.884Z,20.44
2018-07-30T04:01:46.820Z,20.36
2018-07-30T04:02:46.726Z,20.41
2018-07-30T04:03:46.652Z,20.37
2018-07-30T04:04:46.576Z,20.48
2018-07-30T04:05:46.559Z,20.50
2018-07-30T04:06:46.433Z,20.41
2018-07-30T04:07:46.401Z,20.55
2018-07-30T04:08:46.313Z,20.50
2018-07-30T04:09:46.237Z,20.47
2018-07-30T04:10:46.168Z,20.39
2018-07-30T04:11:46.092Z,20.36
2018-07-30T04:12:46.020Z,20.37
2018-07-30T04:13:45.922Z,20.37
2018-07-30T04:14:45.848Z,20.40
2018-07-30T04:15:45.777Z,20.39
2018-07-30T04:16:45.700Z,20.39
2018-07-30T04:17:45.653Z,20.34
2018-07-30T04:18:45.553Z,20.39
2018-07-30T04:19:45.497Z,20.47
2018-07-30T04:20:45.408Z,20.48
2018-07-30T04:21:45.334Z,20.50
2018-07-30T04:22:45.275Z,20.55
2018-07-30T04:23:45.188Z,20.59
2018-07-30T04:24:45.116Z,20.72
2018-07-30T04:25:45.044Z,20.67
2018-07-30T04:26:44.989Z,20.75
2018-07-30T04:27:44.899Z,20.67
2018-07-30T04:28:44.824Z,20.75
2018-07-30T04:29:44.754Z,20.75
2018-07-30T04:30:44.709Z,20.85
2018-07-30T04:31:44.604Z,20.77
2018-07-30T04:32:44.530Z,20.87
2018-07-30T04:33:44.459Z,20.92
2018-07-30T04:34:44.387Z,20.97
2018-07-30T04:35:44.313Z,20.96
2018-07-30T04:36:44.252Z,20.93
2018-07-30T04:37:44.167Z,21.09
2018-07-30T04:38:44.096Z,21.06
2018-07-30T04:39:44.028Z,21.12
2018-07-30T04:40:43.952Z,21.11
2018-07-30T04:41:43.879Z,21.06
2018-07-30T04:42:43.805Z,20.95
2018-07-30T04:43:43.756Z,20.96
2018-07-30T04:44:43.657Z,20.87
2018-07-30T04:45:43.596Z,20.95
2018-07-30T04:46:43.512Z,20.81
2018-07-30T04:47:43.448Z,20.80
2018-07-30T04:48:43.368Z,20.93
2018-07-30T04:49:43.295Z,20.84
2018-07-30T04:50:43.257Z,20.97
2018-07-30T04:51:43.150Z,20.96
2018-07-30T04:52:43.079Z,20.88
2018-07-30T04:53:43.004Z,20.92
2018-07-30T04:54:42.932Z,20.93
2018-07-30T04:55:42.859Z,20.96
2018-07-30T04:56:42.786Z,20.99
2018-07-30T04:57:42.711Z,20.97
2018-07-30T04:58:42.640Z,20.95
2018-07-30T04:59:42.566Z,20.97
2018-07-30T05:00:42.493Z,20.97
2018-07-30T05:01:42.424Z,21.14
2018-07-30T05:02:42.351Z,21.09
2018-07-30T05:03:42.300Z,21.07
2018-07-30T05:04:42.207Z,21.14
2018-07-30T05:05:42.129Z,21.14
2018-07-30T05:06:42.061Z,21.17
2018-07-30T05:07:42.002Z,21.15
2018-07-30T05:08:41.914Z,21.15
2018-07-30T05:09:41.842Z,21.22
2018-07-30T05:10:41.772Z,21.25
2018-07-30T05:11:41.704Z,21.25
2018-07-30T05:12:41.637Z,21.22
2018-07-30T05:13:41.550Z,21.32
2018-07-30T05:14:41.480Z,21.36
2018-07-30T05:15:41.406Z,21.29
2018-07-30T05:16:41.332Z,21.30
2018-07-30T05:17:41.262Z,21.32
2018-07-30T05:18:41.189Z,21.33
2018-07-30T05:19:41.198Z,21.39
2018-07-30T05:20:41.055Z,21.48
2018-07-30T05:21:40.969Z,21.48
2018-07-30T05:22:40.898Z,21.50
2018-07-30T05:23:40.825Z,21.45
2018-07-30T05:24:40.750Z,21.43
2018-07-30T05:25:40.681Z,21.50
2018-07-30T05:26:40.606Z,21.46
2018-07-30T05:27:40.534Z,21.48
2018-07-30T05:28:40.462Z,21.54
2018-07-30T05:29:40.390Z,21.62
2018-07-30T05:30:40.320Z,21.66
2018-07-30T05:31:40.280Z,21.61
2018-07-30T05:32:40.180Z,21.58
2018-07-30T05:33:40.115Z,21.64
2018-07-30T05:34:40.029Z,21.66
2018-07-30T05:35:39.955Z,21.70
2018-07-30T05:36:39.887Z,21.80
2018-07-30T05:37:40.195Z,21.70
2018-07-30T05:38:39.739Z,21.72
2018-07-30T05:39:39.707Z,21.73
2018-07-30T05:40:39.657Z,21.82
2018-07-30T05:41:39.558Z,21.75
2018-07-30T05:42:39.461Z,21.83
2018-07-30T05:43:39.375Z,21.79
2018-07-30T05:44:39.371Z,21.93
2018-07-30T05:45:39.306Z,21.98
2018-07-30T05:46:39.161Z,21.93
2018-07-30T05:47:39.089Z,22.04
2018-07-30T05:48:39.018Z,22.02
2018-07-30T05:49:39.001Z,22.07
2018-07-30T05:50:38.936Z,22.14
2018-07-30T05:51:38.800Z,22.13
2018-07-30T05:52:38.730Z,22.14
2018-07-30T05:53:38.736Z,22.18
2018-07-30T05:54:38.652Z,22.20
2018-07-30T05:55:38.589Z,22.25
2018-07-30T05:56:38.456Z,22.28
2018-07-30T05:57:38.427Z,22.30
2018-07-30T05:58:38.364Z,22.33
2018-07-30T05:59:38.249Z,22.30
2018-07-30T06:00:38.237Z,22.36
2018-07-30T06:01:38.123Z,22.44
2018-07-30T06:02:38.082Z,22.47
2018-07-30T06:03:38.008Z,22.51
2018-07-30T06:04:37.922Z,22.55
2018-07-30T06:05:37.846Z,22.59
2018-07-30T06:06:37.796Z,22.63
2018-07-30T06:07:37.726Z,22.68
2018-07-30T06:08:37.607Z,22.55
2018-07-30T06:09:37.629Z,22.73
2018-07-30T06:10:37.435Z,22.70
2018-07-30T06:11:37.436Z,22.84
2018-07-30T06:12:37.347Z,22.84
2018-07-30T06:13:37.221Z,22.76
2018-07-30T06:14:37.223Z,22.80
2018-07-30T06:15:37.682Z,22.83
2018-07-30T06:16:37.066Z,22.91
2018-07-30T06:17:37.010Z,22.93
2018-07-30T06:18:36.925Z,22.84
2018-07-30T06:19:36.875Z,22.93
2018-07-30T06:20:36.721Z,23.00
2018-07-30T06:21:36.704Z,22.99
2018-07-30T06:22:36.654Z,23.05
2018-07-30T06:23:36.600Z,23.08
2018-07-30T06:24:37.147Z,23.15
2018-07-30T06:25:36.396Z,23.09
2018-07-30T06:26:36.291Z,23.12
2018-07-30T06:27:36.297Z,23.23
2018-07-30T06:28:36.268Z,23.17
2018-07-30T06:29:36.081Z,23.23
2018-07-30T06:30:36.008Z,23.17
2018-07-30T06:31:35.935Z,23.28
2018-07-30T06:32:35.865Z,23.37
2018-07-30T06:33:35.791Z,23.40
2018-07-30T06:34:35.738Z,23.36
2018-07-30T06:35:35.705Z,23.36
2018-07-30T06:36:35.617Z,23.47
2018-07-30T06:37:35.630Z,23.50
2018-07-30T06:38:35.611Z,23.47
2018-07-30T06:39:35.423Z,23.55
2018-07-30T06:40:35.369Z,23.44
2018-07-30T06:41:35.331Z,23.61
2018-07-30T06:42:35.156Z,23.63
2018-07-30T06:43:35.232Z,23.58
2018-07-30T06:44:35.170Z,23.68
2018-07-30T06:45:35.026Z,23.69
2018-07-30T06:46:34.883Z,23.76
2018-07-30T06:47:34.845Z,23.80
2018-07-30T06:48:34.725Z,23.76
2018-07-30T06:49:34.759Z,23.78
2018-07-30T06:50:34.632Z,23.81
2018-07-30T06:51:34.563Z,23.77
2018-07-30T06:52:34.508Z,23.80
2018-07-30T06:53:34.437Z,23.84
2018-07-30T06:54:34.364Z,23.81
2018-07-30T06:55:34.231Z,23.91
2018-07-30T06:56:34.165Z,23.93
2018-07-30T06:57:35.029Z,23.99
2018-07-30T06:58:34.073Z,24.01
2018-07-30T06:59:34.005Z,24.05
2018-07-30T07:00:33.891Z,24.10
2018-07-30T07:01:33.907Z,24.14
2018-07-30T07:02:34.678Z,24.16
2018-07-30T07:03:34.718Z,24.23
2018-07-30T07:04:34.192Z,24.21
2018-07-30T07:05:33.609Z,24.28
2018-07-30T07:06:33.517Z,24.23
2018-07-30T07:07:33.386Z,24.24
2018-07-30T07:08:33.380Z,24.32
2018-07-30T07:09:33.329Z,24.29
2018-07-30T07:10:34.167Z,24.39
2018-07-30T07:11:33.198Z,24.36
2018-07-30T07:12:33.091Z,24.50
2018-07-30T07:13:33.042Z,24.53
2018-07-30T07:14:32.966Z,24.51
2018-07-30T07:15:32.874Z,24.54
2018-07-30T07:16:32.831Z,24.61
2018-07-30T07:17:32.690Z,24.69
2018-07-30T07:18:32.608Z,24.63
2018-07-30T07:19:32.536Z,24.69
2018-07-30T07:20:32.468Z,24.70
2018-07-30T07:21:32.452Z,24.77
2018-07-30T07:22:32.330Z,24.73
2018-07-30T07:23:32.256Z,24.73
2018-07-30T07:24:32.186Z,24.81
2018-07-30T07:25:32.117Z,24.85
2018-07-30T07:26:32.047Z,24.81
2018-07-30T07:27:31.977Z,24.98
2018-07-30T07:28:31.951Z,25.08
2018-07-30T07:29:31.916Z,24.93
2018-07-30T07:30:31.808Z,25.07
2018-07-30T07:31:31.743Z,25.16
2018-07-30T07:32:31.623Z,25.14
2018-07-30T07:33:31.585Z,25.21
2018-07-30T07:34:31.550Z,25.14
2018-07-30T07:35:31.426Z,25.26
2018-07-30T07:36:31.401Z,25.22
2018-07-30T07:37:31.275Z,25.23
2018-07-30T07:38:31.226Z,25.26
2018-07-30T07:39:31.157Z,25.33
2018-07-30T07:40:31.084Z,25.35
2018-07-30T07:41:31.041Z,25.38
2018-07-30T07:42:31.030Z,25.47
2018-07-30T07:43:30.877Z,25.53
2018-07-30T07:44:30.786Z,25.54
2018-07-30T07:45:30.738Z,25.59
2018-07-30T07:46:30.646Z,25.59
2018-07-30T07:47:30.581Z,25.65
2018-07-30T07:48:30.580Z,25.66
2018-07-30T07:49:30.535Z,25.70
2018-07-30T07:50:30.509Z,25.78
2018-07-30T07:51:30.304Z,25.83
2018-07-30T07:52:30.245Z,25.88
2018-07-30T07:53:30.157Z,25.85
2018-07-30T07:54:30.144Z,25.91
2018-07-30T07:55:30.116Z,25.93
2018-07-30T07:56:29.969Z,25.95
2018-07-30T07:57:29.924Z,25.99
2018-07-30T07:58:30.705Z,26.06
2018-07-30T07:59:29.740Z,26.05
2018-07-30T08:00:29.673Z,26.16
2018-07-30T08:01:29.612Z,26.19
2018-07-30T08:02:29.531Z,26.18
2018-07-30T08:03:29.473Z,26.31
2018-07-30T08:04:29.496Z,26.31
2018-07-30T08:05:29.322Z,26.29
2018-07-30T08:06:29.253Z,26.44
2018-07-30T08:07:29.185Z,26.48
2018-07-30T08:08:29.141Z,26.45
2018-07-30T08:09:29.053Z,26.51
2018-07-30T08:10:29.037Z,26.55
2018-07-30T08:11:28.907Z,26.58
2018-07-30T08:12:29.697Z,26.60
2018-07-30T08:13:28.821Z,26.56
2018-07-30T08:14:28.700Z,26.60
2018-07-30T08:15:28.629Z,26.63
2018-07-30T08:16:28.638Z,26.73
2018-07-30T08:17:28.561Z,26.73
2018-07-30T08:18:28.522Z,26.77
2018-07-30T08:19:28.355Z,26.84
2018-07-30T08:20:28.285Z,26.84
2018-07-30T08:21:28.254Z,26.90
2018-07-30T08:22:28.154Z,26.88
2018-07-30T08:23:28.081Z,26.96
2018-07-30T08:24:28.015Z,26.99
2018-07-30T08:25:27.946Z,26.97
2018-07-30T08:26:27.877Z,26.97
2018-07-30T08:27:27.801Z,27.11
2018-07-30T08:28:27.736Z,27.15
2018-07-30T08:29:27.670Z,27.18
2018-07-30T08:30:27.680Z,27.18
2018-07-30T08:31:27.595Z,27.22
2018-07-30T08:32:27.455Z,27.32
2018-07-30T08:33:27.423Z,27.35
2018-07-30T08:34:28.197Z,27.36
2018-07-30T08:35:27.310Z,27.40
2018-07-30T08:36:27.182Z,27.39
2018-07-30T08:37:27.165Z,27.45
2018-07-30T08:38:27.722Z,27.45
2018-07-30T08:39:27.070Z,27.54
2018-07-30T08:40:27.040Z,27.63
2018-07-30T08:41:26.923Z,27.59
2018-07-30T08:42:26.889Z,27.63
2018-07-30T08:43:26.700Z,27.80
2018-07-30T08:44:26.726Z,27.71
2018-07-30T08:45:26.678Z,27.68
2018-07-30T08:46:26.497Z,27.70
2018-07-30T08:47:26.427Z,27.70
2018-07-30T08:48:26.363Z,27.70
2018-07-30T08:49:26.293Z,27.75
2018-07-30T08:50:27.208Z,27.75
2018-07-30T08:51:26.224Z,27.78
2018-07-30T08:52:26.187Z,27.82
2018-07-30T08:53:26.117Z,27.85
2018-07-30T08:54:26.015Z,27.83
2018-07-30T08:55:25.941Z,27.87
2018-07-30T08:56:25.899Z,27.95
2018-07-30T08:57:26.668Z,27.96
2018-07-30T08:58:25.743Z,27.98
2018-07-30T08:59:25.606Z,28.07
2018-07-30T09:00:25.539Z,28.12
2018-07-30T09:01:25.469Z,28.11
2018-07-30T09:02:25.400Z,28.14
2018-07-30T09:03:25.333Z,28.19
2018-07-30T09:04:25.268Z,28.22
2018-07-30T09:05:25.200Z,28.23
2018-07-30T09:06:25.129Z,28.25
2018-07-30T09:07:25.058Z,28.27
2018-07-30T09:08:24.989Z,28.25
2018-07-30T09:09:24.928Z,28.30
2018-07-30T09:10:24.856Z,28.38
2018-07-30T09:11:24.793Z,28.42
2018-07-30T09:12:24.730Z,28.45
2018-07-30T09:13:24.649Z,28.48
2018-07-30T09:14:24.585Z,28.51
2018-07-30T09:15:24.515Z,28.60
2018-07-30T09:16:24.445Z,28.67
2018-07-30T09:17:24.390Z,28.62
2018-07-30T09:18:24.412Z,28.69
2018-07-30T09:19:24.246Z,28.72
2018-07-30T09:20:24.180Z,28.84
2018-07-30T09:21:24.104Z,28.82
2018-07-30T09:22:24.044Z,28.88
2018-07-30T09:23:23.972Z,28.97
2018-07-30T09:24:23.905Z,28.93
2018-07-30T09:25:23.838Z,28.93
2018-07-30T09:26:23.767Z,28.96
2018-07-30T09:27:23.700Z,28.98
2018-07-30T09:28:23.631Z,29.17
2018-07-30T09:29:23.566Z,29.14
2018-07-30T09:30:23.495Z,29.16
2018-07-30T09:31:23.425Z,29.14
2018-07-30T09:32:23.362Z,29.27
2018-07-30T09:33:23.291Z,29.20
2018-07-30T09:34:23.234Z,29.32
2018-07-30T09:35:23.178Z,29.39
2018-07-30T09:36:23.093Z,29.42
2018-07-30T09:37:23.023Z,29.41
2018-07-30T09:38:22.957Z,29.39
2018-07-30T09:39:23.005Z,29.49
2018-07-30T09:40:22.815Z,29.53
2018-07-30T09:41:22.754Z,29.53
2018-07-30T09:42:22.684Z,29.51
2018-07-30T09:43:22.614Z,29.56
2018-07-30T09:44:22.555Z,29.51
2018-07-30T09:45:22.477Z,29.59
2018-07-30T09:46:22.415Z,29.54
2018-07-30T09:47:22.354Z,29.54
2018-07-30T09:48:22.276Z,29.60
2018-07-30T09:49:22.210Z,29.71
2018-07-30T09:50:22.146Z,29.57
2018-07-30T09:51:22.074Z,29.66
2018-07-30T09:52:22.008Z,29.66
2018-07-30T09:53:21.944Z,29.66
2018-07-30T09:54:21.872Z,29.76
2018-07-30T09:55:21.804Z,29.76
2018-07-30T09:56:21.873Z,29.78
2018-07-30T09:57:21.675Z,29.84
2018-07-30T09:58:21.601Z,29.88
2018-07-30T09:59:21.539Z,29.93
2018-07-30T10:00:21.468Z,30.02
2018-07-30T10:01:21.398Z,30.00
2018-07-30T10:02:21.333Z,30.03
2018-07-30T10:03:21.265Z,30.03
2018-07-30T10:04:21.205Z,30.12
2018-07-30T10:05:21.143Z,30.08
2018-07-30T10:06:21.131Z,30.09
2018-07-30T10:07:21.042Z,30.19
2018-07-30T10:08:20.931Z,30.13
2018-07-30T10:09:20.863Z,30.18
2018-07-30T10:10:20.806Z,30.25
2018-07-30T10:11:20.734Z,30.32
2018-07-30T10:12:20.659Z,30.30
2018-07-30T10:13:20.592Z,30.34
2018-07-30T10:14:20.527Z,30.32
2018-07-30T10:15:20.459Z,30.39
2018-07-30T10:16:20.393Z,30.40
2018-07-30T10:17:20.334Z,30.51
2018-07-30T10:18:20.369Z,30.59
2018-07-30T10:19:20.192Z,30.51
2018-07-30T10:20:20.125Z,30.62
2018-07-30T10:21:20.053Z,30.55
2018-07-30T10:22:19.995Z,30.53
2018-07-30T10:23:19.920Z,30.62
2018-07-30T10:24:19.864Z,30.55
2018-07-30T10:25:19.787Z,30.68
2018-07-30T10:26:19.722Z,30.61
2018-07-30T10:27:19.652Z,30.59
2018-07-30T10:28:19.593Z,30.65
2018-07-30T10:29:19.524Z,30.80
2018-07-30T10:30:19.455Z,30.78
2018-07-30T10:31:19.388Z,30.84
2018-07-30T10:32:19.320Z,30.90
2018-07-30T10:33:19.250Z,30.99
2018-07-30T10:34:19.193Z,31.03
2018-07-30T10:35:19.119Z,31.03
2018-07-30T10:36:19.055Z,31.07
2018-07-30T10:37:18.986Z,31.15
2018-07-30T10:38:19.021Z,31.22
2018-07-30T10:39:18.853Z,31.24
2018-07-30T10:40:18.787Z,31.34
2018-07-30T10:41:18.724Z,31.36
2018-07-30T10:42:18.651Z,31.34
2018-07-30T10:43:18.585Z,31.40
2018-07-30T10:44:18.525Z,31.51
2018-07-30T10:45:18.453Z,31.55
2018-07-30T10:46:18.406Z,31.55
2018-07-30T10:47:18.324Z,31.52
2018-07-30T10:48:18.256Z,31.52
2018-07-30T10:49:18.187Z,31.46
2018-07-30T10:50:18.122Z,31.62
2018-07-30T10:51:18.054Z,31.65
2018-07-30T10:52:17.987Z,31.61
2018-07-30T10:53:17.927Z,31.76
2018-07-30T10:54:17.857Z,31.84
2018-07-30T10:55:17.792Z,31.77
2018-07-30T10:56:17.722Z,31.92
2018-07-30T10:57:17.654Z,31.94
2018-07-30T10:58:17.591Z,31.96
2018-07-30T10:59:17.533Z,32.04
2018-07-30T11:00:17.462Z,32.12
2018-07-30T11:01:17.392Z,32.11
2018-07-30T11:02:17.327Z,32.23
2018-07-30T11:03:17.259Z,32.26
2018-07-30T11:04:17.193Z,32.23
2018-07-30T11:05:17.132Z,32.40
2018-07-30T11:06:17.061Z,32.43
2018-07-30T11:07:16.996Z,32.49
2018-07-30T11:08:16.932Z,32.48
2018-07-30T11:09:16.881Z,32.52
2018-07-30T11:10:16.796Z,32.68
2018-07-30T11:11:16.735Z,32.75
2018-07-30T11:12:16.671Z,32.71
2018-07-30T11:13:16.600Z,32.82
2018-07-30T11:14:16.537Z,32.83
2018-07-30T11:15:16.470Z,32.95
2018-07-30T11:16:16.427Z,32.92
2018-07-30T11:17:16.343Z,33.00
2018-07-30T11:18:16.273Z,33.01
2018-07-30T11:19:16.208Z,33.09
2018-07-30T11:20:16.146Z,33.14
2018-07-30T11:21:16.077Z,33.19
2018-07-30T11:22:16.018Z,33.19
2018-07-30T11:23:15.963Z,33.24
2018-07-30T11:24:15.877Z,33.31
2018-07-30T11:25:15.818Z,33.34
2018-07-30T11:26:15.752Z,33.43
2018-07-30T11:27:15.682Z,33.46
2018-07-30T11:28:15.652Z,33.40
2018-07-30T11:29:15.552Z,33.50
2018-07-30T11:30:15.559Z,33.61
2018-07-30T11:31:15.427Z,33.61
2018-07-30T11:32:15.356Z,33.74
2018-07-30T11:33:15.292Z,33.80
2018-07-30T11:34:15.232Z,33.80
2018-07-30T11:35:15.168Z,33.74
2018-07-30T11:36:15.096Z,33.77
2018-07-30T11:37:15.035Z,33.61
2018-07-30T11:38:14.967Z,33.57
2018-07-30T11:39:14.908Z,33.49
2018-07-30T11:40:14.849Z,33.52
2018-07-30T11:41:14.772Z,33.57
2018-07-30T11:42:14.710Z,33.62
2018-07-30T11:43:14.644Z,33.64
2018-07-30T11:44:14.578Z,33.69
2018-07-30T11:45:14.514Z,33.69
2018-07-30T11:46:14.460Z,33.80
2018-07-30T11:47:14.392Z,33.68
2018-07-30T11:48:14.342Z,33.80
2018-07-30T11:49:14.254Z,33.83
2018-07-30T11:50:14.190Z,33.90
2018-07-30T11:51:14.126Z,33.98
2018-07-30T11:52:14.069Z,33.96
2018-07-30T11:53:14.005Z,34.08
2018-07-30T11:54:13.972Z,34.13
2018-07-30T11:55:13.866Z,34.13
2018-07-30T11:56:13.801Z,34.20
2018-07-30T11:57:13.743Z,34.27
2018-07-30T11:58:13.681Z,34.18
2018-07-30T11:59:13.608Z,34.14
2018-07-30T12:00:13.542Z,34.14
2018-07-30T12:01:13.518Z,34.03
2018-07-30T12:02:13.415Z,34.02
2018-07-30T12:03:13.351Z,34.02
2018-07-30T12:04:13.292Z,33.98
2018-07-30T12:05:13.222Z,33.94
2018-07-30T12:06:13.159Z,34.05
2018-07-30T12:07:13.093Z,34.13
2018-07-30T12:08:13.030Z,34.08
2018-07-30T12:09:12.971Z,34.14
2018-07-30T12:10:12.907Z,34.14
2018-07-30T12:11:12.835Z,34.21
2018-07-30T12:12:12.777Z,34.25
2018-07-30T12:13:12.708Z,34.40
2018-07-30T12:14:12.640Z,34.47
2018-07-30T12:15:12.584Z,34.57
2018-07-30T12:16:12.512Z,34.70
2018-07-30T12:17:12.451Z,34.73
2018-07-30T12:18:12.382Z,34.85
2018-07-30T12:19:12.320Z,34.90
2018-07-30T12:20:12.304Z,34.99
2018-07-30T12:21:12.298Z,35.18
2018-07-30T12:22:12.129Z,35.27
2018-07-30T12:23:12.092Z,35.29
2018-07-30T12:24:12.068Z,35.42
2018-07-30T12:25:11.957Z,35.56
2018-07-30T12:26:11.909Z,35.73
2018-07-30T12:27:11.860Z,35.76
2018-07-30T12:28:11.762Z,35.71
2018-07-30T12:29:11.731Z,35.83
2018-07-30T12:30:11.696Z,35.86
2018-07-30T12:31:11.682Z,36.02
2018-07-30T12:32:11.524Z,36.02
2018-07-30T12:33:11.432Z,36.17
2018-07-30T12:34:11.391Z,36.23
2018-07-30T12:35:11.312Z,36.27
2018-07-30T12:36:11.345Z,36.37
2018-07-30T12:37:11.275Z,36.47
2018-07-30T12:38:11.177Z,36.43
2018-07-30T12:39:11.075Z,36.47
2018-07-30T12:40:10.984Z,36.59
2018-07-30T12:41:10.960Z,36.72
2018-07-30T12:42:10.905Z,36.83
2018-07-30T12:43:10.805Z,37.02
2018-07-30T12:44:10.801Z,37.02
2018-07-30T12:45:10.743Z,37.25
2018-07-30T12:46:10.668Z,37.23
2018-07-30T12:47:10.554Z,37.48
2018-07-30T12:48:11.277Z,37.67
2018-07-30T12:49:10.504Z,37.77
2018-07-30T12:50:10.461Z,38.11
2018-07-30T12:51:10.366Z,38.38